Home > Products > Valid Products > MTR

000
SAUS46 KSGX 241155
MTRSDM
METAR KSDM 241153Z AUTO 11003KT 10SM CLR 10/08 A2995 RMK AO2 SLP140
T01000078 10139 20100 53001





000
SAUS46 KSGX 241153
MTRCZZ
METAR KCZZ 241152Z AUTO 03005KT 04/03 A2994 RMK AO1 SLP120 T00440028
10083 20033 55001





000
SAUS46 KSGX 241152
MTRSAN
METAR KSAN 241151Z 11004KT 10SM FEW250 16/10 A2995 RMK AO2 SLP143
T01560100 10172 20156 58003





000
SAUS46 KSGX 241054
MTRSDM
METAR KSDM 241053Z AUTO 00000KT 10SM CLR 12/09 A2995 RMK AO2 SLP138
T01220089





000
SAUS46 KSGX 241053
MTRCZZ
METAR KCZZ 241052Z AUTO 06004KT 06/03 A2994 RMK AO1 SLP118 T00560033





000
SAUS46 KSGX 241052
MTRSAN
METAR KSAN 241051Z 00000KT 10SM FEW250 16/10 A2996 RMK AO2 SLP146
T01560100





000
SAUS46 KSGX 240957
MTRSDM
METAR KSDM 240953Z AUTO 00000KT 10SM CLR 12/09 A2994 RMK AO2 SLP136
T01220089





000
SAUS46 KSGX 240953
MTRCZZ
METAR KCZZ 240952Z AUTO 07005KT 05/03 A2994 RMK AO1 SLP118 T00500033





000
SAUS46 KSGX 240952
MTRSAN
METAR KSAN 240951Z 00000KT 10SM FEW250 16/11 A2996 RMK AO2 SLP143
T01610106





000
SAUS46 KSGX 240854
MTRSDM
METAR KSDM 240853Z AUTO 00000KT 10SM CLR 13/10 A2995 RMK AO2 SLP138
T01330100 58006





000
SAUS46 KSGX 240853
MTRCZZ
METAR KCZZ 240852Z AUTO 03004KT 04/03 A2994 RMK AO1 SLP120 T00440028
58007





000
SAUS46 KSGX 240852
MTRSAN
METAR KSAN 240851Z 00000KT 10SM FEW250 17/11 A2996 RMK AO2 SLP146
T01720106 56004





000
SAUS46 KSGX 240754
MTRSDM
METAR KSDM 240753Z AUTO 15004KT 10SM CLR 14/10 A2996 RMK AO2 SLP142
T01390100 402110100





000
SAUS46 KSGX 240753
MTRSAN
METAR KSAN 240751Z 00000KT 10SM FEW250 17/11 A2997 RMK AO2 SLP148
T01720106 402170150





000
SAUS46 KSGX 240753
MTRCZZ
METAR KCZZ 240752Z AUTO 05003KT 07/04 A2995 RMK AO1 SLP122 T00670044
402280039





000
SAUS46 KSGX 240657
MTRSDM
METAR KSDM 240653Z AUTO 00000KT 10SM CLR 14/10 A2995 RMK AO2 SLP140
T01390100





000
SAUS46 KSGX 240653
MTRCZZ
METAR KCZZ 240652Z AUTO 06006KT 07/05 A2996 RMK AO1 SLP127 T00720050





000
SAUS46 KSGX 240652
MTRSAN
METAR KSAN 240651Z 00000KT 10SM FEW250 17/12 A2997 RMK AO2 SLP147
T01720117





000
SAUS46 KSGX 240556
MTRSDM
METAR KSDM 240553Z AUTO 10003KT 10SM CLR 13/11 A2996 RMK AO2 SLP143
T01330106 10194 20117 50009





000
SAUS46 KSGX 240553
MTRCZZ
METAR KCZZ 240552Z AUTO 02004KT 07/04 A2997 RMK AO1 SLP128 T00720044
10206 20072 51016





000
SAUS46 KSGX 240552
MTRSAN
METAR KSAN 240551Z 00000KT 10SM BKN250 17/11 A2997 RMK AO2 SLP150
T01720111 10200 20172 50008





000
SAUS46 KSGX 240456
MTRSDM
METAR KSDM 240453Z AUTO 00000KT 10SM CLR 15/11 A2997 RMK AO2 SLP145
T01500111





000
SAUS46 KSGX 240453
MTRCZZ
METAR KCZZ 240452Z AUTO 04004KT 09/06 A2995 RMK AO1 SLP124 T00890056





000
SAUS46 KSGX 240452
MTRSAN
METAR KSAN 240451Z 34004KT 10SM BKN250 18/11 A2998 RMK AO2 SLP152
T01780106





000
SAUS46 KSGX 240354
MTRSDM
METAR KSDM 240353Z AUTO 28003KT 10SM CLR 15/11 A2995 RMK AO2 SLP141
T01500106





000
SAUS46 KSGX 240353
MTRCZZ
METAR KCZZ 240352Z AUTO 20005KT 12/08 A2994 RMK AO1 SLP120 T01220083





000
SAUS46 KSGX 240352
MTRSAN
METAR KSAN 240351Z 33004KT 10SM BKN250 18/11 A2997 RMK AO2 SLP148
T01780111





000
SAUS46 KSGX 240254
MTRSDM
METAR KSDM 240253Z AUTO 28007KT 10SM CLR 16/11 A2994 RMK AO2 SLP135
T01560111 53007





000
SAUS46 KSGX 240253
MTRCZZ
METAR KCZZ 240252Z AUTO 21010KT 14/07 A2991 RMK AO1 SLP114 T01390072
53009





000
SAUS46 KSGX 240252
MTRSAN
METAR KSAN 240251Z 32005KT 10SM BKN250 18/11 A2995 RMK AO2 SLP141
T01780111 53005





000
SAUS46 KSGX 240157
MTRSDM
METAR KSDM 240153Z 28008KT 10SM CLR 17/11 A2992 RMK AO2 SLP131
T01670111





000
SAUS46 KSGX 240153
MTRCZZ
METAR KCZZ 240152Z AUTO 22012KT 17/08 A2989 RMK AO1 SLP105 T01720078





000
SAUS46 KSGX 240152
MTRSAN
METAR KSAN 240151Z 30007KT 10SM BKN250 19/11 A2994 RMK AO2 SLP137
T01890111





000
SAUS46 KSGX 240054
MTRSDM
METAR KSDM 240053Z 29010KT 10SM CLR 18/11 A2991 RMK AO2 SLP128
T01830111





000
SAUS46 KSGX 240053
MTRCZZ
METAR KCZZ 240052Z AUTO 22011KT 20/08 A2989 RMK AO1 SLP102 T02000078





000
SAUS46 KSGX 240052
MTRSAN
METAR KSAN 240051Z 29008KT 10SM BKN250 20/11 A2993 RMK AO2 SLP136
T02000106





000
SAUS46 KSGX 232355
MTRSDM
METAR KSDM 232353Z 28009KT 10SM CLR 19/09 A2992 RMK AO2 SLP128
T01940094 10211 20194 56012





000
SAUS46 KSGX 232353
MTRCZZ
METAR KCZZ 232352Z AUTO 26008KT 21/07 A2988 RMK AO1 SLP101 T02060067
10228 20183 55006





000
SAUS46 KSGX 232352
MTRSAN
METAR KSAN 232351Z 30010KT 10SM BKN250 20/11 A2993 RMK AO2 SLP136
T02000111 10217 20183 56012





000
SAUS46 KSGX 232254
MTRSDM
METAR KSDM 232253Z 29008KT 10SM CLR 19/11 A2992 RMK AO2 SLP130
T01940106





000
SAUS46 KSGX 232253
MTRCZZ
METAR KCZZ 232252Z AUTO 23014KT 21/06 A2988 RMK AO1 SLP098 T02110061





000
SAUS46 KSGX 232252
MTRSAN
METAR KSAN 232251Z 28009KT 10SM BKN250 21/12 A2994 RMK AO2 SLP137
T02060117





000
SAUS46 KSGX 232154
MTRSDM
METAR KSDM 232153Z 28010KT 10SM CLR 21/10 A2993 RMK AO2 SLP133
T02060100





000
SAUS46 KSGX 232153
MTRCZZ
METAR KCZZ 232152Z AUTO 23013G18KT 200V300 22/04 A2988 RMK AO1
SLP098 T02220044





000
SAUS46 KSGX 232152
MTRSAN
METAR KSAN 232151Z 30009KT 10SM BKN250 21/10 A2995 RMK AO2 SLP142
T02110100





000
SAUS46 KSGX 232054
MTRSDM
METAR KSDM 232053Z 30009KT 10SM CLR 20/10 A2995 RMK AO2 SLP140
T02000100 56005





000
SAUS46 KSGX 232053
MTRCZZ
METAR KCZZ 232052Z AUTO 22008G16KT 22/03 A2990 RMK AO1 SLP105
T02170033 58005





000
SAUS46 KSGX 232052
MTRSAN
METAR KSAN 232051Z 23009KT 10SM FEW026 BKN250 19/11 A2997 RMK AO2
SLP147 T01940111 58006





000
SAUS46 KSGX 231954
MTRSDM
METAR KSDM 231953Z 27010KT 250V310 10SM CLR 20/09 A2995 RMK AO2
SLP140 T02000094





000
SAUS46 KSGX 231953
MTRCZZ
METAR KCZZ 231952Z AUTO 23011G18KT 21/03 A2991 RMK AO1 SLP106
T02110028





000
SAUS46 KSGX 231952
MTRSAN
METAR KSAN 231951Z 22010KT 10SM BKN250 19/11 A2997 RMK AO2 SLP149
T01890106





000
SAUS46 KSGX 231854
MTRSDM
METAR KSDM 231853Z 27008G14KT 10SM CLR 19/09 A2997 RMK AO2 SLP144
T01940094





000
SAUS46 KSGX 231853
MTRCZZ
METAR KCZZ 231852Z AUTO 27008KT 20/01 A2992 RMK AO1 SLP110 T02000011





000
SAUS46 KSGX 231852
MTRSAN
METAR KSAN 231851Z 25008KT 10SM BKN250 19/09 A2999 RMK AO2 SLP154
T01890094





000
SAUS46 KSGX 231757
MTRSDM
METAR KSDM 231753Z 29006KT 10SM CLR 19/09 A2997 RMK AO2 SLP144
T01940089 10194 20106 58001





000
SAUS46 KSGX 231753
MTRCZZ
METAR KCZZ 231752Z AUTO 27009KT 220V300 19/01 A2992 RMK AO1 SLP112
T01890011 10189 20039 58003





000
SAUS46 KSGX 231752
MTRSAN
METAR KSAN 231751Z 23007KT 10SM BKN250 18/09 A2999 RMK AO2 SLP154
T01830094 10183 20156 51001





000
SAUS46 KSGX 231654
MTRSDM
METAR KSDM 231653Z 00000KT 10SM CLR 18/09 A2997 RMK AO2 SLP145
T01830089





000
SAUS46 KSGX 231653
MTRCZZ
METAR KCZZ 231652Z AUTO 21009KT 16/04 A2993 RMK AO1 SLP115 T01610044





000
SAUS46 KSGX 231652
MTRSAN
METAR KSAN 231651Z VRB06KT 10SM BKN250 17/09 A2998 RMK AO2 SLP153
T01720094





000
SAUS46 KSGX 231554
MTRSDM
METAR KSDM 231553Z VRB03KT 10SM CLR 16/09 A2997 RMK AO2 SLP147
T01610089





000
SAUS46 KSGX 231553
MTRCZZ
METAR KCZZ 231552Z AUTO 22004KT 12/07 A2993 RMK AO1 SLP118 T01170067





000
SAUS46 KSGX 231552
MTRSAN
METAR KSAN 231551Z 21003KT 10SM FEW025 BKN250 17/09 A2999 RMK AO2
SLP155 T01670094





000
SAUS46 KSGX 231539
MTRSAN
SPECI KSAN 231538Z 20003KT 10SM SCT025 BKN250 17/09 A2999 RMK AO2





000
SAUS46 KSGX 231457
MTRSDM
METAR KSDM 231453Z 00000KT 10SM SCT021 15/09 A2997 RMK AO2 SLP147
T01500089 53014





000
SAUS46 KSGX 231453
MTRCZZ
METAR KCZZ 231452Z AUTO 09003KT 07/07 A2993 RMK AO1 SLP123 T00720067
53015





000
SAUS46 KSGX 231452
MTRSAN
METAR KSAN 231451Z 00000KT 10SM BKN025 BKN250 17/09 A2998 RMK AO2
SLP152 T01670094 53013





000
SAUS46 KSGX 231354
MTRSDM
METAR KSDM 231353Z AUTO 00000KT 10SM OVC021 13/08 A2995 RMK AO2
SLP139 T01280083





000
SAUS46 KSGX 231353
MTRCZZ
METAR KCZZ 231352Z AUTO 03004KT 04/04 A2991 RMK AO1 SLP114 T00440039





000
SAUS46 KSGX 231352
MTRSAN
METAR KSAN 231351Z 08004KT 10SM BKN025 16/09 A2996 RMK AO2 SLP145
T01560089 $





000
SAUS46 KSGX 231254
MTRSDM
METAR KSDM 231253Z AUTO 06004KT 10SM OVC021 12/08 A2994 RMK AO2
SLP136 T01220083





000
SAUS46 KSGX 231253
MTRCZZ
METAR KCZZ 231252Z AUTO 00000KT 04/03 A2989 RMK AO1 SLP106 T00440033





000
SAUS46 KSGX 231252
MTRSAN
METAR KSAN 231251Z 09004KT 10SM OVC025 16/09 A2994 RMK AO2 SLP140
T01560094 $





000
SAUS46 KSGX 231157
MTRSDM
METAR KSDM 231153Z AUTO 12004KT 8SM BKN020 11/07 A2993 RMK AO2
SLP132 T01060072 10133 20100 56002





000
SAUS46 KSGX 231153
MTRCZZ
METAR KCZZ 231152Z AUTO 00000KT 05/04 A2988 RMK AO1 SLP102 T00500039
10094 20050 56007





000
SAUS46 KSGX 231152
MTRSAN
METAR KSAN 231151Z 14003KT 10SM OVC023 16/09 A2995 RMK AO2 SLP140
T01560094 10167 20150 55006 $





000
SAUS46 KSGX 231054
MTRSDM
METAR KSDM 231053Z AUTO 12004KT 10SM CLR 11/07 A2992 RMK AO2 SLP131
T01060072





000
SAUS46 KSGX 231053
MTRCZZ
METAR KCZZ 231052Z AUTO 00000KT 06/05 A2989 RMK AO1 SLP101 T00610050





000
SAUS46 KSGX 231052
MTRSAN
METAR KSAN 231051Z 10004KT 10SM BKN023 16/09 A2994 RMK AO2 SLP137
T01560094 $





000
SAUS46 KSGX 230954
MTRSDM
METAR KSDM 230953Z AUTO 16003KT 10SM CLR 12/09 A2993 RMK AO2 SLP134
T01220089





000
SAUS46 KSGX 230953
MTRCZZ
METAR KCZZ 230952Z AUTO 00000KT 07/05 A2990 RMK AO1 SLP102 T00670050





000
SAUS46 KSGX 230952
MTRSAN
METAR KSAN 230951Z 17005KT 10SM BKN023 16/11 A2995 RMK AO2 SLP140
T01610106 $





000
SAUS46 KSGX 230943
MTRSAN
SPECI KSAN 230942Z 18006KT 10SM BKN023 16/11 A2995 RMK AO2 $





000
SAUS46 KSGX 230855
MTRSDM
METAR KSDM 230853Z AUTO 20003KT 10SM CLR 12/09 A2995 RMK AO2 SLP139
T01220089 56005





000
SAUS46 KSGX 230853
MTRCZZ
METAR KCZZ 230852Z AUTO 29004KT 07/06 A2991 RMK AO1 SLP106 T00670056
58005





000
SAUS46 KSGX 230852
MTRSAN
METAR KSAN 230851Z 17005KT 10SM FEW025 16/10 A2996 RMK AO2 SLP146
T01610100 56004 $





000
SAUS46 KSGX 230754
MTRSDM
METAR KSDM 230753Z AUTO 21003KT 10SM CLR 13/09 A2995 RMK AO2 SLP140
T01280089 402170122





000
SAUS46 KSGX 230753
MTRCZZ
METAR KCZZ 230752Z AUTO 27004KT 08/06 A2992 RMK AO1 SLP109 T00830061
402170050





000
SAUS46 KSGX 230752
MTRSAN
METAR KSAN 230751Z 18005KT 10SM FEW025 16/10 A2997 RMK AO2 SLP147
T01610100 402000156 $





000
SAUS46 KSGX 230654
MTRSDM
METAR KSDM 230653Z AUTO 21003KT 10SM CLR 13/09 A2996 RMK AO2 SLP141
T01280089





000
SAUS46 KSGX 230653
MTRCZZ
METAR KCZZ 230652Z AUTO 27007KT 09/07 A2993 RMK AO1 SLP113 T00940067





000
SAUS46 KSGX 230652
MTRSAN
METAR KSAN 230651Z 20006KT 10SM FEW025 16/10 A2997 RMK AO2 SLP148
T01610100 $





000
SAUS46 KSGX 230557
MTRSAN
SPECI KSAN 230556Z 21004KT 10SM SCT025 SCT031 17/09 A2997 RMK AO2 $





000
SAUS46 KSGX 230554
MTRSDM
METAR KSDM 230553Z AUTO 20005KT 10SM CLR 12/08 A2997 RMK AO2 SLP145
T01220083 10183 20122 50008





000
SAUS46 KSGX 230553
MTRCZZ
METAR KCZZ 230552Z AUTO 23007KT 09/07 A2992 RMK AO1 SLP113 T00890072
10189 20089 50009





000
SAUS46 KSGX 230552
MTRSAN
METAR KSAN 230551Z 21004KT 10SM BKN025 17/09 A2997 RMK AO2 SLP150
T01670094 10200 20167 50008 $





000
SAUS46 KSGX 230531
MTRSDM
SPECI KSDM 230528Z AUTO 22003KT 10SM SCT025 14/08 A2997 RMK AO2
T01390083





000
SAUS46 KSGX 230454
MTRSDM
METAR KSDM 230453Z AUTO 26005KT 10SM OVC022 14/09 A2998 RMK AO2
SLP148 T01440089





000
SAUS46 KSGX 230453
MTRCZZ
METAR KCZZ 230452Z AUTO 25007KT 10/07 A2993 RMK AO1 SLP115 T01000067





000
SAUS46 KSGX 230452
MTRSAN
METAR KSAN 230451Z 00000KT 10SM BKN029 17/10 A2998 RMK AO2 SLP153
T01670100 $





000
SAUS46 KSGX 230354
MTRSDM
METAR KSDM 230353Z 28005KT 10SM OVC021 15/10 A2996 RMK AO2 SLP142
T01500100





000
SAUS46 KSGX 230353
MTRCZZ
METAR KCZZ 230352Z AUTO 26008KT 11/07 A2992 RMK AO1 SLP112 T01060072





000
SAUS46 KSGX 230352
MTRSAN
METAR KSAN 230351Z 29006KT 10SM BKN025 17/11 A2997 RMK AO2 SLP148
T01670106 $





000
SAUS46 KSGX 230254
MTRSDM
METAR KSDM 230253Z 28006KT 10SM OVC019 16/10 A2994 RMK AO2 SLP137
T01560100 53004





000
SAUS46 KSGX 230253
MTRCZZ
METAR KCZZ 230252Z AUTO 24010KT 12/06 A2990 RMK AO1 SLP106 T01170061
53007





000
SAUS46 KSGX 230252
MTRSAN
METAR KSAN 230251Z 28007KT 10SM BKN021 BKN250 17/11 A2995 RMK AO2
SLP141 T01720106 53003 $





000
SAUS46 KSGX 230157
MTRSDM
METAR KSDM 230153Z 27007KT 10SM BKN019 16/11 A2992 RMK AO2 SLP131
T01610106





000
SAUS46 KSGX 230153
MTRCZZ
METAR KCZZ 230152Z AUTO 25011KT 14/01 A2989 RMK AO1 SLP104 T01440006





000
SAUS46 KSGX 230152
MTRSAN
METAR KSAN 230151Z 30006KT 10SM BKN021 BKN250 18/11 A2994 RMK AO2
SLP137 T01780111 $





000
SAUS46 KSGX 230055
MTRSDM
METAR KSDM 230053Z 29007KT 10SM BKN020 17/11 A2993 RMK AO2 SLP132
T01720111





000
SAUS46 KSGX 230053
MTRCZZ
METAR KCZZ 230052Z AUTO 23013G20KT 17/07 A2988 RMK AO1 SLP101
T01670067





000
SAUS46 KSGX 230052
MTRSAN
METAR KSAN 230051Z 30010KT 10SM BKN021 BKN250 18/12 A2995 RMK AO2
SLP140 T01830117 $





000
SAUS46 KSGX 222354
MTRSDM
METAR KSDM 222353Z 25008KT 10SM SCT021 18/10 A2993 RMK AO2 SLP132
T01830100 10217 20178 56007





000
SAUS46 KSGX 222353
MTRCZZ
METAR KCZZ 222352Z AUTO 23018G23KT 19/05 A2987 RMK AO1 PK WND
26028/2303 SLP098 T01890050 10217 20178 56014





000
SAUS46 KSGX 222352
MTRSAN
METAR KSAN 222351Z 28009KT 10SM BKN023 BKN250 19/11 A2994 RMK AO2
SLP139 T01940111 10200 20178 56012 $





000
SAUS46 KSGX 222310
MTRSAN
SPECI KSAN 222309Z 23007G15KT 10SM BKN023 BKN250 19/11 A2994 RMK AO2
$





000
SAUS46 KSGX 222254
MTRSDM
METAR KSDM 222253Z 23008KT 10SM SCT022 18/11 A2993 RMK AO2 SLP132
T01830106





000
SAUS46 KSGX 222253
MTRCZZ
METAR KCZZ 222252Z AUTO 24015G25KT 21/M01 A2988 RMK AO1 PK WND
23028/2226 SLP095 T02111011





000
SAUS46 KSGX 222252
MTRSAN
METAR KSAN 222251Z 25009KT 10SM SCT023 SCT250 19/11 A2995 RMK AO2
SLP141 T01940106 $





000
SAUS46 KSGX 222242
MTRSAN
SPECI KSAN 222241Z 22009KT 10SM SCT023 SCT250 19/11 A2995 RMK AO2 $





000
SAUS46 KSGX 222154
MTRSDM
METAR KSDM 222153Z 26012KT 10SM CLR 19/11 A2994 RMK AO2 SLP136
T01940106





000
SAUS46 KSGX 222153
MTRCZZ
METAR KCZZ 222152Z AUTO 24019G26KT 22/02 A2989 RMK AO1 PK WND
23026/2144 SLP100 T02170017





000
SAUS46 KSGX 222152
MTRSAN
METAR KSAN 222151Z 27012G20KT 10SM BKN025 BKN250 19/11 A2996 RMK AO2
SLP146 T01940111 $





000
SAUS46 KSGX 222054
MTRSDM
METAR KSDM 222053Z 10SM CLR 21/09 A2995 RMK AO2 SLP139 T02060094
58011





000
SAUS46 KSGX 222053
MTRCZZ
METAR KCZZ 222052Z AUTO 24012G25KT 22/05 A2992 RMK AO1 SLP108
T02170050 56010





000
SAUS46 KSGX 222052
MTRSAN
METAR KSAN 222051Z 23012KT 10SM FEW025 BKN250 20/11 A2998 RMK AO2
SLP151 T02000111 56013





000
SAUS46 KSGX 221954
MTRSDM
METAR KSDM 221953Z 28011G15KT 10SM FEW027 20/11 A2997 RMK AO2 SLP146
T02000106





000
SAUS46 KSGX 221953
MTRCZZ
METAR KCZZ 221952Z AUTO 22012G19KT 21/07 A2992 RMK AO1 SLP110
T02060072





000
SAUS46 KSGX 221952
MTRSAN
METAR KSAN 221951Z 19008KT 10SM FEW033 BKN250 19/10 A2998 RMK AO2
SLP153 T01890100





000
SAUS46 KSGX 221906
MTRSAN
SPECI KSAN 221905Z 21009KT 10SM SCT026 BKN033 BKN250 19/11 A3000 RMK
AO2





000
SAUS46 KSGX 221855
MTRSDM
METAR KSDM 221853Z 26008KT 10SM SCT022 19/11 A2998 RMK AO2 SLP149
T01890111





000
SAUS46 KSGX 221853
MTRCZZ
METAR KCZZ 221852Z AUTO 22014KT 18/06 A2994 RMK AO1 SLP116 T01830056





000
SAUS46 KSGX 221852
MTRSAN
METAR KSAN 221851Z 22006KT 10SM BKN028 BKN250 18/11 A3000 RMK AO2
SLP159 T01830106





000
SAUS46 KSGX 221852
MTRSDM
SPECI KSDM 221851Z VRB04KT 10SM SCT022 18/11 A2998 RMK AO2





000
SAUS46 KSGX 221754
MTRSDM
METAR KSDM 221753Z VRB04KT 10SM OVC022 18/11 A3000 RMK AO2 SLP155
T01780106 10178 20139 51006





000
SAUS46 KSGX 221753
MTRCZZ
METAR KCZZ 221752Z AUTO 23013KT 19/03 A2995 RMK AO1 SLP118 T01890033
10194 20056 53001





000
SAUS46 KSGX 221752
MTRSAN
METAR KSAN 221751Z 22005KT 10SM OVC024 17/11 A3002 RMK AO2 SLP164
T01720111 10172 20156 51007





000
SAUS46 KSGX 221655
MTRSDM
METAR KSDM 221653Z VRB03KT 7SM OVC019 16/11 A3000 RMK AO2 SLP156
T01560106





000
SAUS46 KSGX 221653
MTRCZZ
METAR KCZZ 221652Z AUTO 21009KT 17/08 A2995 RMK AO1 SLP119 T01670083





000
SAUS46 KSGX 221652
MTRSAN
METAR KSAN 221651Z VRB03KT 10SM OVC020 17/11 A3001 RMK AO2 SLP162
T01670106 $





000
SAUS46 KSGX 221604
MTRSDM
SPECI KSDM 221603Z 00000KT 5SM HZ OVC016 16/11 A2999 RMK AO2
T01560106





000
SAUS46 KSGX 221554
MTRSDM
METAR KSDM 221553Z 21006KT 5SM HZ OVC014 16/11 A2999 RMK AO2 SLP152
T01560106





000
SAUS46 KSGX 221553
MTRCZZ
METAR KCZZ 221552Z AUTO 22009KT 16/08 A2995 RMK AO1 SLP115 T01560078





000
SAUS46 KSGX 221552
MTRSAN
METAR KSAN 221551Z 21005KT 10SM OVC019 17/11 A3000 RMK AO2 SLP160
T01670111 $





000
SAUS46 KSGX 221456
MTRSDM
METAR KSDM 221453Z 25007KT 4SM HZ OVC010 14/12 A2998 RMK AO2 SLP150
T01440117 51003





000
SAUS46 KSGX 221453
MTRCZZ
METAR KCZZ 221452Z AUTO 00000KT 11/06 A2995 RMK AO1 SLP118 T01060061
53002





000
SAUS46 KSGX 221452
MTRSAN
METAR KSAN 221451Z 17005KT 10SM OVC017 17/11 A3000 RMK AO2 SLP157
T01670106 53013





000
SAUS46 KSGX 221428
MTRSAN
SPECI KSAN 221427Z 16005KT 10SM OVC015 16/11 A2999 RMK AO2





000
SAUS46 KSGX 221416
MTRSDM
SPECI KSDM 221415Z AUTO 22007KT 4SM BR OVC008 14/12 A2998 RMK AO2
T01390117





000
SAUS46 KSGX 221354
MTRSDM
METAR KSDM 221353Z AUTO 26007KT 4SM BR OVC007 14/12 A2997 RMK AO2
SLP147 T01390117





000
SAUS46 KSGX 221353
MTRCZZ
METAR KCZZ 221352Z AUTO 04004KT 06/03 A2995 RMK AO1 SLP119 T00610033





000
SAUS46 KSGX 221352
MTRSAN
METAR KSAN 221351Z 25004KT 10SM OVC014 16/11 A2999 RMK AO2 SLP153
T01610111 $





000
SAUS46 KSGX 221254
MTRSDM
METAR KSDM 221253Z AUTO 25005KT 4SM BR OVC006 14/13 A2994 RMK AO2
SLP137 T01440128





000
SAUS46 KSGX 221253
MTRCZZ
METAR KCZZ 221252Z AUTO 06004KT 07/04 A2993 RMK AO1 SLP112 T00670039





000
SAUS46 KSGX 221252
MTRSAN
METAR KSAN 221251Z 21007KT 10SM OVC012 16/12 A2996 RMK AO2 SLP146
T01610117 $





000
SAUS46 KSGX 221154
MTRSDM
METAR KSDM 221153Z AUTO 16005KT 4SM BR OVC006 15/13 A2993 RMK AO2
SLP133 T01500128 10150 20144 58008





000
SAUS46 KSGX 221153
MTRCZZ
METAR KCZZ 221152Z AUTO 04003KT 06/03 A2994 RMK AO1 SLP114 T00560033
10122 20050 55008





000
SAUS46 KSGX 221152
MTRSAN
METAR KSAN 221151Z 21004KT 10SM OVC012 16/12 A2996 RMK AO2 SLP144
T01610122 10167 20161 55013 $





000
SAUS46 KSGX 221104
MTRSDM
SPECI KSDM 221103Z AUTO 00000KT 4SM BR OVC005 14/13 A2994 RMK AO2
T01440128





000
SAUS46 KSGX 221054
MTRSDM
METAR KSDM 221053Z AUTO 00000KT 5SM BR OVC006 14/13 A2995 RMK AO2
SLP138 T01440128





000
SAUS46 KSGX 221053
MTRCZZ
METAR KCZZ 221052Z AUTO 03003KT 08/06 A2994 RMK AO1 SLP110 T00780056





000
SAUS46 KSGX 221052
MTRSAN
METAR KSAN 221051Z 09008KT 10SM OVC014 16/12 A2995 RMK AO2 SLP143
T01610117 $





000
SAUS46 KSGX 221035
MTRSDM
SPECI KSDM 221034Z AUTO 00000KT 5SM BR OVC006 14/12 A2995 RMK AO2
T01440122





000
SAUS46 KSGX 221008
MTRSDM
SPECI KSDM 221007Z AUTO 00000KT 5SM BR OVC005 14/12 A2995 RMK AO2
T01440122





000
SAUS46 KSGX 220954
MTRSDM
METAR KSDM 220953Z AUTO 00000KT 4SM BR OVC006 14/12 A2996 RMK AO2
SLP141 T01440122





000
SAUS46 KSGX 220953
MTRCZZ
METAR KCZZ 220952Z AUTO 01003KT 08/06 A2994 RMK AO1 SLP111 T00830056





000
SAUS46 KSGX 220952
MTRSAN
METAR KSAN 220951Z 19003KT 10SM OVC011 16/12 A2997 RMK AO2 SLP149
T01610117 $





000
SAUS46 KSGX 220951
MTRSDM
SPECI KSDM 220950Z AUTO 00000KT 4SM BR OVC006 14/12 A2996 RMK AO2





000
SAUS46 KSGX 220930
MTRSAN
SPECI KSAN 220929Z 00000KT 10SM OVC011 16/12 A2998 RMK AO2 $





000
SAUS46 KSGX 220854
MTRSDM
METAR KSDM 220853Z AUTO 29003KT 5SM BR OVC005 14/12 A2997 RMK AO2
SLP147 T01440122 56007





000
SAUS46 KSGX 220853
MTRCZZ
METAR KCZZ 220852Z AUTO 04003KT 08/06 A2996 RMK AO1 SLP118 T00830056
58009





000
SAUS46 KSGX 220852
MTRSAN
METAR KSAN 220851Z 32004KT 10SM OVC009 16/12 A3000 RMK AO2 SLP157
T01610117 58005 $





000
SAUS46 KSGX 220836
MTRSDM
SPECI KSDM 220833Z AUTO 29004KT 5SM BR OVC006 15/13 A2998 RMK AO2
T01500128





000
SAUS46 KSGX 220804
MTRSDM
SPECI KSDM 220802Z AUTO 00000KT 4SM BR OVC005 14/13 A2999 RMK AO2
T01440128





000
SAUS46 KSGX 220754
MTRSDM
METAR KSDM 220753Z AUTO 28004KT 4SM BR OVC006 14/13 A2999 RMK AO2
SLP151 T01440128 402330133





000
SAUS46 KSGX 220753
MTRCZZ
METAR KCZZ 220752Z AUTO 06005KT 11/06 A2998 RMK AO1 SLP123 T01060061
403000067





000
SAUS46 KSGX 220752
MTRSAN
METAR KSAN 220751Z 28004KT 10SM OVC009 16/12 A3001 RMK AO2 SLP162
T01610117 402110161 $





000
SAUS46 KSGX 220730
MTRSDM
SPECI KSDM 220726Z AUTO 00000KT 5SM BR OVC006 15/13 A2999 RMK AO2
T01500133





000
SAUS46 KSGX 220719
MTRSDM
SPECI KSDM 220715Z AUTO 00000KT 5SM BR OVC005 15/13 A2999 RMK AO2
T01500133





000
SAUS46 KSGX 220655
MTRSDM
METAR KSDM 220653Z AUTO 00000KT 6SM BR OVC006 15/13 A2999 RMK AO2
SLP153 T01500133





000
SAUS46 KSGX 220653
MTRCZZ
METAR KCZZ 220652Z AUTO 04005KT 12/07 A2999 RMK AO1 SLP124 T01170067





000
SAUS46 KSGX 220652
MTRSAN
METAR KSAN 220651Z 18005KT 10SM OVC009 16/13 A3001 RMK AO2 SLP162
T01610128 $





000
SAUS46 KSGX 220647
MTRSDM
SPECI KSDM 220643Z AUTO 00000KT 6SM BR OVC006 15/13 A3000 RMK AO2
T01500133





000
SAUS46 KSGX 220607
MTRSDM
SPECI KSDM 220606Z AUTO 00000KT 6SM BR OVC005 15/13 A3000 RMK AO2
T01500133





000
SAUS46 KSGX 220555
MTRSDM
METAR KSDM 220553Z AUTO 00000KT 6SM BR OVC006 15/13 A3000 RMK AO2
SLP154 T01500133 10206 20144 50001





000
SAUS46 KSGX 220553
MTRCZZ
METAR KCZZ 220552Z AUTO 04004KT 12/06 A2999 RMK AO1 SLP127 T01220061
10267 20122 50003





000
SAUS46 KSGX 220552
MTRSAN
METAR KSAN 220551Z 21005KT 10SM OVC009 17/13 A3001 RMK AO2 SLP162
T01670128 10200 20167 50001 $





000
SAUS46 KSGX 220546
MTRSDM
SPECI KSDM 220545Z AUTO 00000KT 6SM BR OVC006 15/13 A3000 RMK AO2
T01500133





000
SAUS46 KSGX 220455
MTRSAN
SPECI KSAN 220454Z 19004KT 10SM OVC008 17/13 A3002 RMK AO2 $





000
SAUS46 KSGX 220454
MTRSDM
METAR KSDM 220453Z AUTO 00000KT 6SM BR OVC005 15/13 A3000 RMK AO2
SLP157 T01500133





000
SAUS46 KSGX 220453
MTRCZZ
METAR KCZZ 220452Z AUTO 02005KT 12/06 A3000 RMK AO1 SLP129 T01220056





000
SAUS46 KSGX 220452
MTRSAN
METAR KSAN 220451Z 21004KT 10SM OVC010 17/13 A3002 RMK AO2 SLP165
T01670133 $





000
SAUS46 KSGX 220419
MTRSDM
SPECI KSDM 220418Z AUTO 00000KT 7SM OVC005 15/13 A3000 RMK AO2
T01500133





000
SAUS46 KSGX 220357
MTRSDM
METAR KSDM 220353Z 00000KT 6SM BR OVC004 14/13 A3000 RMK AO2 SLP157
T01440128





000
SAUS46 KSGX 220353
MTRCZZ
METAR KCZZ 220352Z AUTO 20003KT 18/10 A3000 RMK AO1 SLP129 T01780100





000
SAUS46 KSGX 220352
MTRSAN
METAR KSAN 220351Z 15004KT 10SM OVC011 17/13 A3001 RMK AO2 SLP163
T01670133 $





000
SAUS46 KSGX 220346
MTRSDM
SPECI KSDM 220345Z 00000KT 7SM OVC004 14/13 A3000 RMK AO2 T01440133





000
SAUS46 KSGX 220254
MTRSDM
METAR KSDM 220253Z 29005KT 7SM OVC005 15/13 A3000 RMK AO2 SLP156
T01500128 53005





000
SAUS46 KSGX 220253
MTRCZZ
METAR KCZZ 220252Z AUTO 21008KT 19/10 A2998 RMK AO1 SLP127 T01890100
51002





000
SAUS46 KSGX 220252
MTRSAN
METAR KSAN 220251Z 00000KT 10SM OVC011 17/13 A3001 RMK AO2 SLP161
T01670133 53003 $





000
SAUS46 KSGX 220241
MTRSDM
SPECI KSDM 220238Z 27008KT 8SM OVC005 15/13 A3000 RMK AO2 T01500128





000
SAUS46 KSGX 220215
MTRSDM
SPECI KSDM 220212Z 29008KT 7SM BKN006 16/13 A2998 RMK AO2 T01560128





000
SAUS46 KSGX 220205
MTRSDM
SPECI KSDM 220204Z 29007KT 7SM SCT006 16/13 A2998 RMK AO2 T01560128





000
SAUS46 KSGX 220154
MTRSDM
METAR KSDM 220153Z 28007KT 8SM CLR 16/13 A2998 RMK AO2 SLP149
T01560128





000
SAUS46 KSGX 220153
MTRCZZ
METAR KCZZ 220152Z AUTO 24007KT 23/04 A2998 RMK AO1 SLP127 T02280044





000
SAUS46 KSGX 220152
MTRSAN
METAR KSAN 220151Z 22007KT 210V270 10SM OVC011 17/13 A3000 RMK AO2
SLP159 T01720133 $





000
SAUS46 KSGX 220059
MTRSAN
SPECI KSAN 220058Z 24008KT 10SM BKN013 18/13 A3000 RMK AO2 $





000
SAUS46 KSGX 220054
MTRSDM
METAR KSDM 220053Z 27009KT 10SM CLR 18/13 A2998 RMK AO2 SLP150
T01780133





000
SAUS46 KSGX 220053
MTRCZZ
METAR KCZZ 220052Z AUTO 28009KT 25/06 A2998 RMK AO1 SLP128 T02500056





000
SAUS46 KSGX 220052
MTRSAN
METAR KSAN 220051Z 22008KT 10SM SCT013 18/13 A3000 RMK AO2 SLP158
T01780133 $





000
SAUS46 KSGX 212357
MTRSDM
METAR KSDM 212353Z 28008KT 10SM CLR 21/14 A2998 RMK AO2 SLP150
T02060139 10233 20189 58013





000
SAUS46 KSGX 212353
MTRCZZ
METAR KCZZ 212352Z AUTO 26013G19KT 27/07 A2998 RMK AO1 SLP125
T02670067 10300 20267 56007





000
SAUS46 KSGX 212352
MTRSAN
METAR KSAN 212351Z 24008KT 10SM SCT012 19/14 A3000 RMK AO2 SLP158
T01940139 10211 20194 58014 $





000
SAUS46 KSGX 212257
MTRSDM
METAR KSDM 212253Z VRB06KT 9SM SCT011 19/14 A3000 RMK AO2 SLP155
T01940139





000
SAUS46 KSGX 212253
MTRCZZ
METAR KCZZ 212252Z AUTO 26011G21KT 28/05 A2998 RMK AO1 SLP124
T02780050





000
SAUS46 KSGX 212252
MTRSAN
METAR KSAN 212251Z 27005KT 10SM SCT012 19/14 A3001 RMK AO2 SLP163
T01940139 $





000
SAUS46 KSGX 212247
MTRSAN
SPECI KSAN 212246Z 27007KT 10SM SCT012 19/14 A3001 RMK AO2 $





000
SAUS46 KSGX 212156
MTRSDM
METAR KSDM 212153Z 26009KT 9SM FEW011 19/14 A3002 RMK AO2 SLP161
T01940139





000
SAUS46 KSGX 212153
MTRCZZ
METAR KCZZ 212152Z AUTO 24014G21KT 29/05 A2999 RMK AO1 SLP125
T02890050





000
SAUS46 KSGX 212152
MTRSAN
METAR KSAN 212151Z 31008KT 8SM BKN012 20/14 A3003 RMK AO2 SLP170
T02000139





000
SAUS46 KSGX 212118
MTRSAN
SPECI KSAN 212117Z 28011G17KT 8SM BKN012 20/14 A3004 RMK AO2





000
SAUS46 KSGX 212054
MTRSDM
METAR KSDM 212053Z 28011G16KT 8SM CLR 21/14 A3002 RMK AO2 SLP163
T02110139 56007





000
SAUS46 KSGX 212053
MTRCZZ
METAR KCZZ 212052Z AUTO 25013G21KT 29/06 A3000 RMK AO1 SLP129
T02890056 58014





000
SAUS46 KSGX 212052
MTRSAN
METAR KSAN 212051Z 30009KT 8SM SCT012 20/14 A3004 RMK AO2 SLP172
T02000139 58002





000
SAUS46 KSGX 211955
MTRSDM
METAR KSDM 211953Z 30006KT 10SM CLR 22/14 A3002 RMK AO2 SLP162
T02220139





000
SAUS46 KSGX 211953
MTRCZZ
METAR KCZZ 211952Z AUTO 23008KT 29/03 A3001 RMK AO1 SLP135 T02890033





000
SAUS46 KSGX 211952
MTRSAN
METAR KSAN 211951Z 28008KT 8SM FEW010 21/14 A3004 RMK AO2 SLP173
T02060139





000
SAUS46 KSGX 211854
MTRSDM
METAR KSDM 211853Z 29007KT 9SM CLR 23/14 A3003 RMK AO2 SLP166
T02280139





000
SAUS46 KSGX 211853
MTRCZZ
METAR KCZZ 211852Z AUTO 29/02 A3003 RMK AO1 SLP140 T02940022





000
SAUS46 KSGX 211852
MTRSAN
METAR KSAN 211851Z 29007KT 8SM FEW010 20/13 A3006 RMK AO2 SLP177
T02000133





000
SAUS46 KSGX 211754
MTRSDM
METAR KSDM 211753Z 31005KT 8SM CLR 21/13 A3004 RMK AO2 SLP169
T02110133 10211 20133 55002





000
SAUS46 KSGX 211753
MTRCZZ
METAR KCZZ 211752Z AUTO 20007KT 28/01 A3004 RMK AO1 SLP144 T02780011
10278 20072 56004





000
SAUS46 KSGX 211752
MTRSAN
METAR KSAN 211751Z 31004KT 7SM FEW010 19/13 A3005 RMK AO2 SLP175
T01940133 10194 20161 58005





000
SAUS46 KSGX 211654
MTRSDM
METAR KSDM 211653Z 32003KT 7SM CLR 19/13 A3004 RMK AO2 SLP169
T01940133





000
SAUS46 KSGX 211653
MTRCZZ
METAR KCZZ 211652Z AUTO 00000KT 26/00 A3004 RMK AO1 SLP144 T02610000





000
SAUS46 KSGX 211652
MTRSAN
METAR KSAN 211651Z VRB06KT 7SM FEW010 19/13 A3006 RMK AO2 SLP179
T01890133





000
SAUS46 KSGX 211624
MTRSDM
SPECI KSDM 211623Z 00000KT 5SM HZ SCT005 17/13 A3004 RMK AO2
T01670133





000
SAUS46 KSGX 211623
MTRSAN
SPECI KSAN 211622Z 32005KT 7SM SCT010 18/13 A3006 RMK AO2





000
SAUS46 KSGX 211614
MTRSDM
SPECI KSDM 211613Z 00000KT 4SM HZ BKN005 16/13 A3004 RMK AO2
T01610133





000
SAUS46 KSGX 211608
MTRSAN
SPECI KSAN 211607Z 30003KT 6SM HZ BKN010 17/13 A3006 RMK AO2





000
SAUS46 KSGX 211554
MTRSDM
METAR KSDM 211553Z VRB03KT 3SM HZ OVC004 16/13 A3005 RMK AO2 SLP173
T01560128





000
SAUS46 KSGX 211553
MTRCZZ
METAR KCZZ 211552Z AUTO 00000KT 22/06 A3005 RMK AO1 SLP149 T02170056





000
SAUS46 KSGX 211552
MTRSAN
METAR KSAN 211551Z VRB04KT 4SM HZ OVC008 17/13 A3006 RMK AO2 SLP179
T01670128





000
SAUS46 KSGX 211539
MTRSDM
SPECI KSDM 211537Z 34003KT 3SM BR OVC002 15/13 A3005 RMK AO2
T01500133





000
SAUS46 KSGX 211527
MTRSDM
SPECI KSDM 211524Z VRB03KT 2 1/2SM BR OVC002 15/13 A3005 RMK AO2
T01500133





000
SAUS46 KSGX 211517
MTRSDM
SPECI KSDM 211516Z 00000KT 2SM BR OVC002 14/13 A3005 RMK AO2
T01440133





000
SAUS46 KSGX 211454
MTRSDM
METAR KSDM 211453Z 01003KT 1 1/4SM BR OVC002 14/13 A3005 RMK AO2
SLP173 T01390133 53010





000
SAUS46 KSGX 211453
MTRCZZ
METAR KCZZ 211452Z AUTO 05003KT 16/07 A3005 RMK AO1 SLP153 T01560072
53004





000
SAUS46 KSGX 211452
MTRSAN
METAR KSAN 211451Z 03005KT 3SM HZ SCT006 OVC007 16/13 A3007 RMK AO2
SLP180 T01610128 53010





000
SAUS46 KSGX 211435
MTRSDM
SPECI KSDM 211434Z AUTO 00000KT 1SM BR OVC002 14/13 A3004 RMK AO2
T01390128





000
SAUS46 KSGX 211354
MTRSDM
METAR KSDM 211353Z AUTO 00000KT 1/2SM FG VV002 14/13 A3003 RMK AO2
SLP168 T01390128





000
SAUS46 KSGX 211353
MTRCZZ
METAR KCZZ 211352Z AUTO 04005KT 09/04 A3005 RMK AO1 SLP155 T00940044





000
SAUS46 KSGX 211352
MTRSAN
METAR KSAN 211351Z 36004KT 4SM HZ FEW005 OVC007 16/13 A3005 RMK AO2
SLP176 VIS SW 2 1/2 T01610133 $





000
SAUS46 KSGX 211256
MTRSDM
METAR KSDM 211253Z AUTO 00000KT 3/4SM BR VV002 14/13 A3001 RMK AO2
SLP161 T01390128





000
SAUS46 KSGX 211253
MTRCZZ
METAR KCZZ 211252Z AUTO 03006KT 08/04 A3004 RMK AO1 SLP150 T00830044





000
SAUS46 KSGX 211252
MTRSAN
METAR KSAN 211251Z 00000KT 9SM OVC007 16/13 A3003 RMK AO2 SLP170
T01610133 $





    US Dept of Commerce
    National Oceanic and Atmospheric Administration
    National Weather Service
    1325 East West Highway
    Silver Spring, MD 20910
    Page Author: NWS Internet Services Team
Disclaimer
Information Quality
Credits
Glossary
Privacy Policy
Freedom of Information Act (FOIA)
About Us
Career Opportunities